sensor_id;sensor_type;location;lat;lon;timestamp;P1;durP1;ratioP1;P2;durP2;ratioP2
49784;SDS011;35679;38.732;-121.358;2024-02-26T00:02:37;7.13;;;5.32;;
49784;SDS011;35679;38.732;-121.358;2024-02-26T00:05:26;6.88;;;4.80;;
49784;SDS011;35679;38.732;-121.358;2024-02-26T00:08:16;5.65;;;5.10;;
49784;SDS011;35679;38.732;-121.358;2024-02-26T00:11:05;5.75;;;5.07;;
49784;SDS011;35679;38.732;-121.358;2024-02-26T00:13:55;5.50;;;5.00;;
49784;SDS011;35679;38.732;-121.358;2024-02-26T00:16:45;5.75;;;5.25;;
49784;SDS011;35679;38.732;-121.358;2024-02-26T00:19:35;5.30;;;4.90;;
49784;SDS011;35679;38.732;-121.358;2024-02-26T00:22:24;5.60;;;5.10;;
49784;SDS011;35679;38.732;-121.358;2024-02-26T00:25:14;5.20;;;4.80;;
49784;SDS011;35679;38.732;-121.358;2024-02-26T00:28:04;5.18;;;4.78;;
49784;SDS011;35679;38.732;-121.358;2024-02-26T00:30:54;6.10;;;5.70;;
49784;SDS011;35679;38.732;-121.358;2024-02-26T00:33:44;5.32;;;4.53;;
49784;SDS011;35679;38.732;-121.358;2024-02-26T00:36:34;5.22;;;4.72;;
49784;SDS011;35679;38.732;-121.358;2024-02-26T00:39:23;5.53;;;5.03;;
49784;SDS011;35679;38.732;-121.358;2024-02-26T00:42:13;5.10;;;4.80;;
49784;SDS011;35679;38.732;-121.358;2024-02-26T00:45:02;5.03;;;4.63;;
49784;SDS011;35679;38.732;-121.358;2024-02-26T00:47:52;5.35;;;4.95;;
49784;SDS011;35679;38.732;-121.358;2024-02-26T00:50:41;5.30;;;4.80;;
49784;SDS011;35679;38.732;-121.358;2024-02-26T00:53:31;8.70;;;4.82;;
49784;SDS011;35679;38.732;-121.358;2024-02-26T00:56:21;4.63;;;4.22;;
49784;SDS011;35679;38.732;-121.358;2024-02-26T00:59:11;4.85;;;4.53;;
49784;SDS011;35679;38.732;-121.358;2024-02-26T01:02:01;5.30;;;4.80;;
49784;SDS011;35679;38.732;-121.358;2024-02-26T01:04:50;5.00;;;4.70;;
49784;SDS011;35679;38.732;-121.358;2024-02-26T01:07:40;4.65;;;4.35;;
49784;SDS011;35679;38.732;-121.358;2024-02-26T01:10:30;4.90;;;4.60;;
49784;SDS011;35679;38.732;-121.358;2024-02-26T01:13:19;5.10;;;4.70;;
49784;SDS011;35679;38.732;-121.358;2024-02-26T01:16:09;5.82;;;4.75;;
49784;SDS011;35679;38.732;-121.358;2024-02-26T01:18:59;4.85;;;4.45;;
49784;SDS011;35679;38.732;-121.358;2024-02-26T01:21:48;5.22;;;4.32;;
49784;SDS011;35679;38.732;-121.358;2024-02-26T01:24:38;4.80;;;4.40;;
49784;SDS011;35679;38.732;-121.358;2024-02-26T01:27:27;29.70;;;5.72;;
49784;SDS011;35679;38.732;-121.358;2024-02-26T01:30:17;4.90;;;4.50;;
49784;SDS011;35679;38.732;-121.358;2024-02-26T01:33:06;5.00;;;4.60;;
49784;SDS011;35679;38.732;-121.358;2024-02-26T01:35:56;5.05;;;4.68;;
49784;SDS011;35679;38.732;-121.358;2024-02-26T01:38:46;4.90;;;4.60;;
49784;SDS011;35679;38.732;-121.358;2024-02-26T01:41:35;4.80;;;4.50;;
49784;SDS011;35679;38.732;-121.358;2024-02-26T01:44:26;4.70;;;4.40;;
49784;SDS011;35679;38.732;-121.358;2024-02-26T01:47:15;8.43;;;4.72;;
49784;SDS011;35679;38.732;-121.358;2024-02-26T01:50:05;4.70;;;4.32;;
49784;SDS011;35679;38.732;-121.358;2024-02-26T01:52:55;5.40;;;4.90;;
49784;SDS011;35679;38.732;-121.358;2024-02-26T01:55:46;4.85;;;4.55;;
49784;SDS011;35679;38.732;-121.358;2024-02-26T01:58:36;4.13;;;3.83;;
49784;SDS011;35679;38.732;-121.358;2024-02-26T02:01:26;4.30;;;4.00;;
49784;SDS011;35679;38.732;-121.358;2024-02-26T02:04:18;5.18;;;4.20;;
49784;SDS011;35679;38.732;-121.358;2024-02-26T02:07:07;4.20;;;3.90;;
49784;SDS011;35679;38.732;-121.358;2024-02-26T02:09:57;4.20;;;3.90;;
49784;SDS011;35679;38.732;-121.358;2024-02-26T02:12:47;4.47;;;4.13;;
49784;SDS011;35679;38.732;-121.358;2024-02-26T02:15:37;4.43;;;4.05;;
49784;SDS011;35679;38.732;-121.358;2024-02-26T02:18:27;4.32;;;4.03;;
49784;SDS011;35679;38.732;-121.358;2024-02-26T02:21:16;4.45;;;4.10;;
49784;SDS011;35679;38.732;-121.358;2024-02-26T02:24:06;4.20;;;3.90;;
49784;SDS011;35679;38.732;-121.358;2024-02-26T02:26:58;4.18;;;3.88;;
49784;SDS011;35679;38.732;-121.358;2024-02-26T02:29:48;4.32;;;4.03;;
49784;SDS011;35679;38.732;-121.358;2024-02-26T02:32:39;4.50;;;4.20;;
49784;SDS011;35679;38.732;-121.358;2024-02-26T02:35:30;4.40;;;4.10;;
49784;SDS011;35679;38.732;-121.358;2024-02-26T02:38:19;4.43;;;4.10;;
49784;SDS011;35679;38.732;-121.358;2024-02-26T02:41:09;4.55;;;4.20;;
49784;SDS011;35679;38.732;-121.358;2024-02-26T02:43:58;4.57;;;4.20;;
49784;SDS011;35679;38.732;-121.358;2024-02-26T02:46:48;4.40;;;4.10;;
49784;SDS011;35679;38.732;-121.358;2024-02-26T02:49:39;4.55;;;4.20;;
49784;SDS011;35679;38.732;-121.358;2024-02-26T02:52:28;4.40;;;4.05;;
49784;SDS011;35679;38.732;-121.358;2024-02-26T02:55:18;4.38;;;4.07;;
49784;SDS011;35679;38.732;-121.358;2024-02-26T02:58:07;4.70;;;4.35;;
49784;SDS011;35679;38.732;-121.358;2024-02-26T03:00:57;4.35;;;4.05;;
49784;SDS011;35679;38.732;-121.358;2024-02-26T03:03:49;4.10;;;3.80;;
49784;SDS011;35679;38.732;-121.358;2024-02-26T03:06:39;4.43;;;4.13;;
49784;SDS011;35679;38.732;-121.358;2024-02-26T03:09:29;4.18;;;3.88;;
49784;SDS011;35679;38.732;-121.358;2024-02-26T03:12:18;4.07;;;3.78;;
49784;SDS011;35679;38.732;-121.358;2024-02-26T03:15:08;4.72;;;4.32;;
49784;SDS011;35679;38.732;-121.358;2024-02-26T03:18:00;4.93;;;4.43;;
49784;SDS011;35679;38.732;-121.358;2024-02-26T03:20:51;4.30;;;4.00;;
49784;SDS011;35679;38.732;-121.358;2024-02-26T03:23:41;4.68;;;4.38;;
49784;SDS011;35679;38.732;-121.358;2024-02-26T03:26:31;4.40;;;4.10;;
49784;SDS011;35679;38.732;-121.358;2024-02-26T03:29:21;4.35;;;4.05;;
49784;SDS011;35679;38.732;-121.358;2024-02-26T03:32:11;4.47;;;4.18;;
49784;SDS011;35679;38.732;-121.358;2024-02-26T03:35:00;4.40;;;4.00;;
49784;SDS011;35679;38.732;-121.358;2024-02-26T03:37:50;4.60;;;4.30;;
49784;SDS011;35679;38.732;-121.358;2024-02-26T03:40:40;4.63;;;4.22;;
49784;SDS011;35679;38.732;-121.358;2024-02-26T03:43:29;4.95;;;4.55;;
49784;SDS011;35679;38.732;-121.358;2024-02-26T03:46:19;4.72;;;4.35;;
49784;SDS011;35679;38.732;-121.358;2024-02-26T03:49:09;4.40;;;3.97;;
49784;SDS011;35679;38.732;-121.358;2024-02-26T03:51:59;4.65;;;4.32;;
49784;SDS011;35679;38.732;-121.358;2024-02-26T03:54:48;4.25;;;3.80;;
49784;SDS011;35679;38.732;-121.358;2024-02-26T03:57:38;4.40;;;4.05;;
49784;SDS011;35679;38.732;-121.358;2024-02-26T04:00:27;4.70;;;4.30;;
49784;SDS011;35679;38.732;-121.358;2024-02-26T04:03:18;4.72;;;4.32;;
49784;SDS011;35679;38.732;-121.358;2024-02-26T04:06:08;4.55;;;4.25;;
49784;SDS011;35679;38.732;-121.358;2024-02-26T04:09:09;4.53;;;4.20;;
49784;SDS011;35679;38.732;-121.358;2024-02-26T04:11:59;4.30;;;4.00;;
49784;SDS011;35679;38.732;-121.358;2024-02-26T04:14:49;4.32;;;4.03;;
49784;SDS011;35679;38.732;-121.358;2024-02-26T04:17:39;4.45;;;4.15;;
49784;SDS011;35679;38.732;-121.358;2024-02-26T04:20:29;4.70;;;4.40;;
49784;SDS011;35679;38.732;-121.358;2024-02-26T04:23:19;4.50;;;4.20;;
49784;SDS011;35679;38.732;-121.358;2024-02-26T04:26:09;4.50;;;4.10;;
49784;SDS011;35679;38.732;-121.358;2024-02-26T04:28:58;3.88;;;3.58;;
49784;SDS011;35679;38.732;-121.358;2024-02-26T04:31:48;4.18;;;3.88;;
49784;SDS011;35679;38.732;-121.358;2024-02-26T04:34:38;4.40;;;4.10;;
49784;SDS011;35679;38.732;-121.358;2024-02-26T04:37:28;4.20;;;3.90;;
49784;SDS011;35679;38.732;-121.358;2024-02-26T04:40:21;3.88;;;3.58;;
49784;SDS011;35679;38.732;-121.358;2024-02-26T04:43:10;4.43;;;4.13;;
49784;SDS011;35679;38.732;-121.358;2024-02-26T04:46:00;4.80;;;4.50;;
49784;SDS011;35679;38.732;-121.358;2024-02-26T04:48:50;5.32;;;4.93;;
49784;SDS011;35679;38.732;-121.358;2024-02-26T04:54:32;5.50;;;5.10;;
49784;SDS011;35679;38.732;-121.358;2024-02-26T04:57:22;5.80;;;5.40;;
49784;SDS011;35679;38.732;-121.358;2024-02-26T05:00:12;5.38;;;4.97;;
49784;SDS011;35679;38.732;-121.358;2024-02-26T05:03:02;5.60;;;5.20;;
49784;SDS011;35679;38.732;-121.358;2024-02-26T05:05:52;8.60;;;8.00;;
49784;SDS011;35679;38.732;-121.358;2024-02-26T05:08:41;7.72;;;7.22;;
49784;SDS011;35679;38.732;-121.358;2024-02-26T05:11:32;8.85;;;8.35;;
49784;SDS011;35679;38.732;-121.358;2024-02-26T05:14:21;5.60;;;5.20;;
49784;SDS011;35679;38.732;-121.358;2024-02-26T05:17:11;5.70;;;5.20;;
49784;SDS011;35679;38.732;-121.358;2024-02-26T05:20:00;5.20;;;4.90;;
49784;SDS011;35679;38.732;-121.358;2024-02-26T05:22:50;6.00;;;5.45;;
49784;SDS011;35679;38.732;-121.358;2024-02-26T05:25:39;6.15;;;5.75;;
49784;SDS011;35679;38.732;-121.358;2024-02-26T05:28:29;5.68;;;5.28;;
49784;SDS011;35679;38.732;-121.358;2024-02-26T05:31:19;5.57;;;5.28;;
49784;SDS011;35679;38.732;-121.358;2024-02-26T05:34:08;6.03;;;5.63;;
49784;SDS011;35679;38.732;-121.358;2024-02-26T05:36:58;6.10;;;5.65;;
49784;SDS011;35679;38.732;-121.358;2024-02-26T05:39:47;5.85;;;5.45;;
49784;SDS011;35679;38.732;-121.358;2024-02-26T05:42:37;6.00;;;5.70;;
49784;SDS011;35679;38.732;-121.358;2024-02-26T05:45:26;4.95;;;4.65;;
49784;SDS011;35679;38.732;-121.358;2024-02-26T05:48:16;5.57;;;5.20;;
49784;SDS011;35679;38.732;-121.358;2024-02-26T05:51:05;5.60;;;5.20;;
49784;SDS011;35679;38.732;-121.358;2024-02-26T05:53:55;5.45;;;5.15;;
49784;SDS011;35679;38.732;-121.358;2024-02-26T05:56:44;5.40;;;5.10;;
49784;SDS011;35679;38.732;-121.358;2024-02-26T05:59:34;6.10;;;5.70;;
49784;SDS011;35679;38.732;-121.358;2024-02-26T06:02:23;5.82;;;5.50;;
49784;SDS011;35679;38.732;-121.358;2024-02-26T06:05:12;5.38;;;4.90;;
49784;SDS011;35679;38.732;-121.358;2024-02-26T06:08:04;5.05;;;4.75;;
49784;SDS011;35679;38.732;-121.358;2024-02-26T06:10:55;4.93;;;4.53;;
49784;SDS011;35679;38.732;-121.358;2024-02-26T06:13:44;4.95;;;4.65;;
49784;SDS011;35679;38.732;-121.358;2024-02-26T06:16:34;6.15;;;5.75;;
49784;SDS011;35679;38.732;-121.358;2024-02-26T06:19:23;6.15;;;5.75;;
49784;SDS011;35679;38.732;-121.358;2024-02-26T06:22:13;5.97;;;5.57;;
49784;SDS011;35679;38.732;-121.358;2024-02-26T06:25:02;6.05;;;5.65;;
49784;SDS011;35679;38.732;-121.358;2024-02-26T06:27:52;6.10;;;5.80;;
49784;SDS011;35679;38.732;-121.358;2024-02-26T06:30:42;5.90;;;5.40;;
49784;SDS011;35679;38.732;-121.358;2024-02-26T06:33:31;6.57;;;6.03;;
49784;SDS011;35679;38.732;-121.358;2024-02-26T06:36:22;4.95;;;4.65;;
49784;SDS011;35679;38.732;-121.358;2024-02-26T06:39:12;4.63;;;4.32;;
49784;SDS011;35679;38.732;-121.358;2024-02-26T06:42:01;5.18;;;4.88;;
49784;SDS011;35679;38.732;-121.358;2024-02-26T06:44:50;5.00;;;4.60;;
49784;SDS011;35679;38.732;-121.358;2024-02-26T06:47:40;5.20;;;4.80;;
49784;SDS011;35679;38.732;-121.358;2024-02-26T06:50:30;4.90;;;4.50;;
49784;SDS011;35679;38.732;-121.358;2024-02-26T06:53:19;5.05;;;4.70;;
49784;SDS011;35679;38.732;-121.358;2024-02-26T06:56:08;4.75;;;4.45;;
49784;SDS011;35679;38.732;-121.358;2024-02-26T06:58:58;5.35;;;5.00;;
49784;SDS011;35679;38.732;-121.358;2024-02-26T07:01:47;5.55;;;5.25;;
49784;SDS011;35679;38.732;-121.358;2024-02-26T07:04:37;5.82;;;5.32;;
49784;SDS011;35679;38.732;-121.358;2024-02-26T07:07:26;6.07;;;5.68;;
49784;SDS011;35679;38.732;-121.358;2024-02-26T07:10:16;5.47;;;5.10;;
49784;SDS011;35679;38.732;-121.358;2024-02-26T07:13:06;5.75;;;5.35;;
49784;SDS011;35679;38.732;-121.358;2024-02-26T07:15:55;5.82;;;5.38;;
49784;SDS011;35679;38.732;-121.358;2024-02-26T07:18:45;5.10;;;4.80;;
49784;SDS011;35679;38.732;-121.358;2024-02-26T07:21:34;5.03;;;4.72;;
49784;SDS011;35679;38.732;-121.358;2024-02-26T07:24:24;3.80;;;3.60;;
49784;SDS011;35679;38.732;-121.358;2024-02-26T07:27:13;4.00;;;3.70;;
49784;SDS011;35679;38.732;-121.358;2024-02-26T07:30:06;3.65;;;3.45;;
49784;SDS011;35679;38.732;-121.358;2024-02-26T07:32:59;3.70;;;3.50;;
49784;SDS011;35679;38.732;-121.358;2024-02-26T07:35:49;3.80;;;3.58;;
49784;SDS011;35679;38.732;-121.358;2024-02-26T07:38:38;4.13;;;3.80;;
49784;SDS011;35679;38.732;-121.358;2024-02-26T07:41:30;3.60;;;3.40;;
49784;SDS011;35679;38.732;-121.358;2024-02-26T07:44:20;3.95;;;3.65;;
49784;SDS011;35679;38.732;-121.358;2024-02-26T07:47:09;4.00;;;3.60;;
49784;SDS011;35679;38.732;-121.358;2024-02-26T07:49:59;3.60;;;3.40;;
49784;SDS011;35679;38.732;-121.358;2024-02-26T07:52:48;4.03;;;3.83;;
49784;SDS011;35679;38.732;-121.358;2024-02-26T07:55:39;3.60;;;3.40;;
49784;SDS011;35679;38.732;-121.358;2024-02-26T07:58:29;3.90;;;3.60;;
49784;SDS011;35679;38.732;-121.358;2024-02-26T08:01:18;3.83;;;3.60;;
49784;SDS011;35679;38.732;-121.358;2024-02-26T08:04:07;3.92;;;3.63;;
49784;SDS011;35679;38.732;-121.358;2024-02-26T08:06:57;3.42;;;3.22;;
49784;SDS011;35679;38.732;-121.358;2024-02-26T08:09:47;3.80;;;3.50;;
49784;SDS011;35679;38.732;-121.358;2024-02-26T08:12:36;3.70;;;3.50;;
49784;SDS011;35679;38.732;-121.358;2024-02-26T08:15:26;3.92;;;3.63;;
49784;SDS011;35679;38.732;-121.358;2024-02-26T08:18:16;4.35;;;4.05;;
49784;SDS011;35679;38.732;-121.358;2024-02-26T08:21:05;4.13;;;3.83;;
49784;SDS011;35679;38.732;-121.358;2024-02-26T08:23:55;4.20;;;3.88;;
49784;SDS011;35679;38.732;-121.358;2024-02-26T08:26:44;4.07;;;3.70;;
49784;SDS011;35679;38.732;-121.358;2024-02-26T08:29:34;4.10;;;3.80;;
49784;SDS011;35679;38.732;-121.358;2024-02-26T08:32:24;3.50;;;3.20;;
49784;SDS011;35679;38.732;-121.358;2024-02-26T08:35:13;4.93;;;3.50;;
49784;SDS011;35679;38.732;-121.358;2024-02-26T08:38:03;3.60;;;3.30;;
49784;SDS011;35679;38.732;-121.358;2024-02-26T08:40:53;3.83;;;3.63;;
49784;SDS011;35679;38.732;-121.358;2024-02-26T08:43:42;3.80;;;3.50;;
49784;SDS011;35679;38.732;-121.358;2024-02-26T08:46:31;3.70;;;3.50;;
49784;SDS011;35679;38.732;-121.358;2024-02-26T08:49:21;4.18;;;3.88;;
49784;SDS011;35679;38.732;-121.358;2024-02-26T08:52:12;3.72;;;3.53;;
49784;SDS011;35679;38.732;-121.358;2024-02-26T08:55:02;3.80;;;3.60;;
49784;SDS011;35679;38.732;-121.358;2024-02-26T08:57:53;4.22;;;3.92;;
49784;SDS011;35679;38.732;-121.358;2024-02-26T09:00:42;3.70;;;3.50;;
49784;SDS011;35679;38.732;-121.358;2024-02-26T09:03:32;3.65;;;3.45;;
49784;SDS011;35679;38.732;-121.358;2024-02-26T09:06:21;3.80;;;3.50;;
49784;SDS011;35679;38.732;-121.358;2024-02-26T09:09:11;3.55;;;3.35;;
49784;SDS011;35679;38.732;-121.358;2024-02-26T09:12:00;3.60;;;3.40;;
49784;SDS011;35679;38.732;-121.358;2024-02-26T09:14:50;3.83;;;3.63;;
49784;SDS011;35679;38.732;-121.358;2024-02-26T09:17:40;3.88;;;3.58;;
49784;SDS011;35679;38.732;-121.358;2024-02-26T09:20:30;3.67;;;3.47;;
49784;SDS011;35679;38.732;-121.358;2024-02-26T09:23:19;3.90;;;3.60;;
49784;SDS011;35679;38.732;-121.358;2024-02-26T09:26:09;3.72;;;3.53;;
49784;SDS011;35679;38.732;-121.358;2024-02-26T09:28:58;3.65;;;3.45;;
49784;SDS011;35679;38.732;-121.358;2024-02-26T09:31:48;3.85;;;3.65;;
49784;SDS011;35679;38.732;-121.358;2024-02-26T09:34:39;3.88;;;3.67;;
49784;SDS011;35679;38.732;-121.358;2024-02-26T09:37:29;3.93;;;3.63;;
49784;SDS011;35679;38.732;-121.358;2024-02-26T09:40:19;3.88;;;3.67;;
49784;SDS011;35679;38.732;-121.358;2024-02-26T09:43:08;3.67;;;3.47;;
49784;SDS011;35679;38.732;-121.358;2024-02-26T09:46:03;3.70;;;3.50;;
49784;SDS011;35679;38.732;-121.358;2024-02-26T09:48:52;3.95;;;3.67;;
49784;SDS011;35679;38.732;-121.358;2024-02-26T09:51:42;3.67;;;3.47;;
49784;SDS011;35679;38.732;-121.358;2024-02-26T09:54:32;3.88;;;3.60;;
49784;SDS011;35679;38.732;-121.358;2024-02-26T09:57:22;3.42;;;3.22;;
49784;SDS011;35679;38.732;-121.358;2024-02-26T10:00:14;3.70;;;3.50;;
49784;SDS011;35679;38.732;-121.358;2024-02-26T10:03:11;4.15;;;3.88;;
49784;SDS011;35679;38.732;-121.358;2024-02-26T10:06:04;3.90;;;3.60;;
49784;SDS011;35679;38.732;-121.358;2024-02-26T10:08:55;3.70;;;3.50;;
49784;SDS011;35679;38.732;-121.358;2024-02-26T10:11:47;3.92;;;3.72;;
49784;SDS011;35679;38.732;-121.358;2024-02-26T10:14:38;3.75;;;3.55;;
49784;SDS011;35679;38.732;-121.358;2024-02-26T10:17:27;3.75;;;3.55;;
49784;SDS011;35679;38.732;-121.358;2024-02-26T10:20:17;3.80;;;3.50;;
49784;SDS011;35679;38.732;-121.358;2024-02-26T10:23:10;3.63;;;3.33;;
49784;SDS011;35679;38.732;-121.358;2024-02-26T10:25:59;3.65;;;3.45;;
49784;SDS011;35679;38.732;-121.358;2024-02-26T10:28:49;3.85;;;3.65;;
49784;SDS011;35679;38.732;-121.358;2024-02-26T10:31:45;3.50;;;3.30;;
49784;SDS011;35679;38.732;-121.358;2024-02-26T10:34:35;3.72;;;3.42;;
49784;SDS011;35679;38.732;-121.358;2024-02-26T10:37:29;3.55;;;3.33;;
49784;SDS011;35679;38.732;-121.358;2024-02-26T10:40:19;3.55;;;3.35;;
49784;SDS011;35679;38.732;-121.358;2024-02-26T10:43:08;3.67;;;3.47;;
49784;SDS011;35679;38.732;-121.358;2024-02-26T10:45:58;3.03;;;2.92;;
49784;SDS011;35679;38.732;-121.358;2024-02-26T10:48:51;3.45;;;3.25;;
49784;SDS011;35679;38.732;-121.358;2024-02-26T10:51:43;3.63;;;3.42;;
49784;SDS011;35679;38.732;-121.358;2024-02-26T10:54:34;3.28;;;3.08;;
49784;SDS011;35679;38.732;-121.358;2024-02-26T10:57:27;3.53;;;3.33;;
49784;SDS011;35679;38.732;-121.358;2024-02-26T11:00:37;3.30;;;3.20;;
49784;SDS011;35679;38.732;-121.358;2024-02-26T11:03:28;3.50;;;3.30;;
49784;SDS011;35679;38.732;-121.358;2024-02-26T11:06:25;3.40;;;3.10;;
49784;SDS011;35679;38.732;-121.358;2024-02-26T11:09:16;3.42;;;3.22;;
49784;SDS011;35679;38.732;-121.358;2024-02-26T11:12:06;3.63;;;3.42;;
49784;SDS011;35679;38.732;-121.358;2024-02-26T11:15:01;3.35;;;3.15;;
49784;SDS011;35679;38.732;-121.358;2024-02-26T11:17:52;3.28;;;3.10;;
49784;SDS011;35679;38.732;-121.358;2024-02-26T11:20:42;3.63;;;3.42;;
49784;SDS011;35679;38.732;-121.358;2024-02-26T11:23:33;3.60;;;3.33;;
49784;SDS011;35679;38.732;-121.358;2024-02-26T11:26:25;3.70;;;3.40;;
49784;SDS011;35679;38.732;-121.358;2024-02-26T11:29:18;3.70;;;3.50;;
49784;SDS011;35679;38.732;-121.358;2024-02-26T11:32:10;3.38;;;3.17;;
49784;SDS011;35679;38.732;-121.358;2024-02-26T11:34:59;3.30;;;3.10;;
49784;SDS011;35679;38.732;-121.358;2024-02-26T11:37:53;3.33;;;3.20;;
49784;SDS011;35679;38.732;-121.358;2024-02-26T11:40:44;3.53;;;3.33;;
49784;SDS011;35679;38.732;-121.358;2024-02-26T11:43:49;3.33;;;3.20;;
49784;SDS011;35679;38.732;-121.358;2024-02-26T11:46:42;3.20;;;3.00;;
49784;SDS011;35679;38.732;-121.358;2024-02-26T11:49:32;3.63;;;3.42;;
49784;SDS011;35679;38.732;-121.358;2024-02-26T11:52:23;3.55;;;3.25;;
49784;SDS011;35679;38.732;-121.358;2024-02-26T11:55:12;3.20;;;3.10;;
49784;SDS011;35679;38.732;-121.358;2024-02-26T11:58:21;3.75;;;3.50;;
49784;SDS011;35679;38.732;-121.358;2024-02-26T12:04:26;3.78;;;3.47;;
49784;SDS011;35679;38.732;-121.358;2024-02-26T12:07:19;3.55;;;3.35;;
49784;SDS011;35679;38.732;-121.358;2024-02-26T12:13:32;3.40;;;3.20;;
49784;SDS011;35679;38.732;-121.358;2024-02-26T12:16:39;3.60;;;3.40;;
49784;SDS011;35679;38.732;-121.358;2024-02-26T12:19:31;3.60;;;3.40;;
49784;SDS011;35679;38.732;-121.358;2024-02-26T12:22:21;3.60;;;3.33;;
49784;SDS011;35679;38.732;-121.358;2024-02-26T12:25:10;3.40;;;3.20;;
49784;SDS011;35679;38.732;-121.358;2024-02-26T12:28:00;3.60;;;3.30;;
49784;SDS011;35679;38.732;-121.358;2024-02-26T12:30:49;3.80;;;3.50;;
49784;SDS011;35679;38.732;-121.358;2024-02-26T12:33:39;3.60;;;3.40;;
49784;SDS011;35679;38.732;-121.358;2024-02-26T12:36:28;3.60;;;3.35;;
49784;SDS011;35679;38.732;-121.358;2024-02-26T12:39:18;3.30;;;3.10;;
49784;SDS011;35679;38.732;-121.358;2024-02-26T12:42:09;3.30;;;3.13;;
49784;SDS011;35679;38.732;-121.358;2024-02-26T12:44:59;3.40;;;3.10;;
49784;SDS011;35679;38.732;-121.358;2024-02-26T12:47:48;3.33;;;3.22;;
49784;SDS011;35679;38.732;-121.358;2024-02-26T12:50:38;3.15;;;2.97;;
49784;SDS011;35679;38.732;-121.358;2024-02-26T12:53:27;3.55;;;3.35;;
49784;SDS011;35679;38.732;-121.358;2024-02-26T12:56:17;3.20;;;3.10;;
49784;SDS011;35679;38.732;-121.358;2024-02-26T12:59:07;3.53;;;3.33;;
49784;SDS011;35679;38.732;-121.358;2024-02-26T13:01:57;3.65;;;3.33;;
49784;SDS011;35679;38.732;-121.358;2024-02-26T13:04:46;3.95;;;3.33;;
49784;SDS011;35679;38.732;-121.358;2024-02-26T13:07:42;3.13;;;3.03;;
49784;SDS011;35679;38.732;-121.358;2024-02-26T13:10:32;3.30;;;3.20;;
49784;SDS011;35679;38.732;-121.358;2024-02-26T13:13:23;3.20;;;3.05;;
49784;SDS011;35679;38.732;-121.358;2024-02-26T13:16:14;3.03;;;2.92;;
49784;SDS011;35679;38.732;-121.358;2024-02-26T13:19:09;3.17;;;2.90;;
49784;SDS011;35679;38.732;-121.358;2024-02-26T13:22:06;3.70;;;3.50;;
49784;SDS011;35679;38.732;-121.358;2024-02-26T13:24:56;3.50;;;3.30;;
49784;SDS011;35679;38.732;-121.358;2024-02-26T13:27:46;3.40;;;3.20;;
49784;SDS011;35679;38.732;-121.358;2024-02-26T13:30:36;3.20;;;3.10;;
49784;SDS011;35679;38.732;-121.358;2024-02-26T13:33:26;3.20;;;3.10;;
49784;SDS011;35679;38.732;-121.358;2024-02-26T13:36:17;3.17;;;2.97;;
49784;SDS011;35679;38.732;-121.358;2024-02-26T13:39:06;3.30;;;3.10;;
49784;SDS011;35679;38.732;-121.358;2024-02-26T13:42:01;3.83;;;3.63;;
49784;SDS011;35679;38.732;-121.358;2024-02-26T13:44:51;3.63;;;3.42;;
49784;SDS011;35679;38.732;-121.358;2024-02-26T13:47:40;3.35;;;3.15;;
49784;SDS011;35679;38.732;-121.358;2024-02-26T13:50:29;3.60;;;3.40;;
49784;SDS011;35679;38.732;-121.358;2024-02-26T13:53:19;3.38;;;3.17;;
49784;SDS011;35679;38.732;-121.358;2024-02-26T13:56:09;3.30;;;3.00;;
49784;SDS011;35679;38.732;-121.358;2024-02-26T13:58:59;3.42;;;3.22;;
49784;SDS011;35679;38.732;-121.358;2024-02-26T14:01:48;3.10;;;3.00;;
49784;SDS011;35679;38.732;-121.358;2024-02-26T14:04:38;3.83;;;3.60;;
49784;SDS011;35679;38.732;-121.358;2024-02-26T14:07:27;3.35;;;3.15;;
49784;SDS011;35679;38.732;-121.358;2024-02-26T14:10:17;3.28;;;3.08;;
49784;SDS011;35679;38.732;-121.358;2024-02-26T14:13:06;3.10;;;3.00;;
49784;SDS011;35679;38.732;-121.358;2024-02-26T14:15:55;3.47;;;3.28;;
49784;SDS011;35679;38.732;-121.358;2024-02-26T14:18:45;3.10;;;3.00;;
49784;SDS011;35679;38.732;-121.358;2024-02-26T14:21:35;3.65;;;3.42;;
49784;SDS011;35679;38.732;-121.358;2024-02-26T14:24:25;3.20;;;3.10;;
49784;SDS011;35679;38.732;-121.358;2024-02-26T14:27:14;3.47;;;3.17;;
49784;SDS011;35679;38.732;-121.358;2024-02-26T14:30:05;3.55;;;3.25;;
49784;SDS011;35679;38.732;-121.358;2024-02-26T14:32:55;3.30;;;3.10;;
49784;SDS011;35679;38.732;-121.358;2024-02-26T14:35:45;3.40;;;3.20;;
49784;SDS011;35679;38.732;-121.358;2024-02-26T14:38:34;3.50;;;3.25;;
49784;SDS011;35679;38.732;-121.358;2024-02-26T14:41:24;3.33;;;3.20;;
49784;SDS011;35679;38.732;-121.358;2024-02-26T14:44:13;3.40;;;3.20;;
49784;SDS011;35679;38.732;-121.358;2024-02-26T14:47:03;3.85;;;3.60;;
49784;SDS011;35679;38.732;-121.358;2024-02-26T14:49:53;3.63;;;3.42;;
49784;SDS011;35679;38.732;-121.358;2024-02-26T14:52:42;3.60;;;3.40;;
49784;SDS011;35679;38.732;-121.358;2024-02-26T14:55:32;3.30;;;3.20;;
49784;SDS011;35679;38.732;-121.358;2024-02-26T14:58:25;3.20;;;3.10;;
49784;SDS011;35679;38.732;-121.358;2024-02-26T15:01:17;3.77;;;3.57;;
49784;SDS011;35679;38.732;-121.358;2024-02-26T15:04:07;3.13;;;3.00;;
49784;SDS011;35679;38.732;-121.358;2024-02-26T15:06:57;4.22;;;3.97;;
49784;SDS011;35679;38.732;-121.358;2024-02-26T15:09:46;4.53;;;4.30;;
49784;SDS011;35679;38.732;-121.358;2024-02-26T15:12:36;6.05;;;5.30;;
49784;SDS011;35679;38.732;-121.358;2024-02-26T15:15:26;4.78;;;4.47;;
49784;SDS011;35679;38.732;-121.358;2024-02-26T15:18:15;5.60;;;5.40;;
49784;SDS011;35679;38.732;-121.358;2024-02-26T15:21:05;4.10;;;3.90;;
49784;SDS011;35679;38.732;-121.358;2024-02-26T15:23:55;3.92;;;3.72;;
49784;SDS011;35679;38.732;-121.358;2024-02-26T15:26:54;4.28;;;3.97;;
49784;SDS011;35679;38.732;-121.358;2024-02-26T15:29:59;4.28;;;4.07;;
49784;SDS011;35679;38.732;-121.358;2024-02-26T15:32:50;4.97;;;4.40;;
49784;SDS011;35679;38.732;-121.358;2024-02-26T15:35:40;3.92;;;3.72;;
49784;SDS011;35679;38.732;-121.358;2024-02-26T15:38:33;4.38;;;4.07;;
49784;SDS011;35679;38.732;-121.358;2024-02-26T15:41:23;5.18;;;3.17;;
49784;SDS011;35679;38.732;-121.358;2024-02-26T15:44:12;3.50;;;3.30;;
49784;SDS011;35679;38.732;-121.358;2024-02-26T15:47:02;3.65;;;3.42;;
49784;SDS011;35679;38.732;-121.358;2024-02-26T15:49:51;3.17;;;3.08;;
49784;SDS011;35679;38.732;-121.358;2024-02-26T15:52:41;3.83;;;3.63;;
49784;SDS011;35679;38.732;-121.358;2024-02-26T15:55:30;3.55;;;3.10;;
49784;SDS011;35679;38.732;-121.358;2024-02-26T15:58:20;3.38;;;3.17;;
49784;SDS011;35679;38.732;-121.358;2024-02-26T16:01:12;3.85;;;3.65;;
49784;SDS011;35679;38.732;-121.358;2024-02-26T16:04:11;4.78;;;4.40;;
49784;SDS011;35679;38.732;-121.358;2024-02-26T16:07:01;5.10;;;4.80;;
49784;SDS011;35679;38.732;-121.358;2024-02-26T16:09:57;5.22;;;4.93;;
49784;SDS011;35679;38.732;-121.358;2024-02-26T16:12:48;4.50;;;4.18;;
49784;SDS011;35679;38.732;-121.358;2024-02-26T16:15:43;4.13;;;3.92;;
49784;SDS011;35679;38.732;-121.358;2024-02-26T16:18:36;3.80;;;3.60;;
49784;SDS011;35679;38.732;-121.358;2024-02-26T16:21:25;3.88;;;3.58;;
49784;SDS011;35679;38.732;-121.358;2024-02-26T16:24:16;3.65;;;3.35;;
49784;SDS011;35679;38.732;-121.358;2024-02-26T16:27:05;3.45;;;3.30;;
49784;SDS011;35679;38.732;-121.358;2024-02-26T16:29:55;3.72;;;3.42;;
49784;SDS011;35679;38.732;-121.358;2024-02-26T16:32:44;3.42;;;3.22;;